createdAt,value
2022-10-22T00:00:00.793Z,13.8
2022-10-22T00:01:01.469Z,13.7
2022-10-22T00:02:01.017Z,13.6
2022-10-22T00:03:00.627Z,13.6
2022-10-22T00:04:01.172Z,13.6
2022-10-22T00:05:00.785Z,13.6
2022-10-22T00:06:01.316Z,13.6
2022-10-22T00:07:00.890Z,13.6
2022-10-22T00:08:01.461Z,13.6
2022-10-22T00:09:01.099Z,13.6
2022-10-22T00:10:00.630Z,13.6
2022-10-22T00:11:01.181Z,13.5
2022-10-22T00:12:00.757Z,13.5
2022-10-22T00:13:01.337Z,13.6
2022-10-22T00:14:00.915Z,13.5
2022-10-22T00:15:01.517Z,13.5
2022-10-22T00:16:01.113Z,13.5
2022-10-22T00:17:00.671Z,13.5
2022-10-22T00:18:01.248Z,13.5
2022-10-22T00:19:00.826Z,13.6
2022-10-22T00:20:01.418Z,13.6
2022-10-22T00:21:01.027Z,13.6
2022-10-22T00:22:00.589Z,13.6
2022-10-22T00:23:01.161Z,13.6
2022-10-22T00:24:00.736Z,13.6
2022-10-22T00:25:01.322Z,13.6
2022-10-22T00:26:00.895Z,13.6
2022-10-22T00:27:01.485Z,13.6
2022-10-22T00:28:01.060Z,13.6
2022-10-22T00:29:00.633Z,13.6
2022-10-22T00:30:01.211Z,13.6
2022-10-22T00:31:00.817Z,13.6
2022-10-22T00:32:01.361Z,13.6
2022-10-22T00:33:00.937Z,13.6
2022-10-22T00:34:01.531Z,13.7
2022-10-22T00:35:01.109Z,13.7
2022-10-22T00:36:00.697Z,13.7
2022-10-22T00:37:01.297Z,13.7
2022-10-22T00:38:00.870Z,13.7
2022-10-22T00:39:01.445Z,13.6
2022-10-22T00:40:01.020Z,13.6
2022-10-22T00:42:01.192Z,13.7
2022-10-22T00:43:00.768Z,13.8
2022-10-22T00:44:01.347Z,13.8
2022-10-22T00:45:00.921Z,13.8
2022-10-22T00:46:01.500Z,13.8
2022-10-22T00:47:01.095Z,13.8
2022-10-22T00:48:00.660Z,13.8
2022-10-22T00:49:01.232Z,13.8
2022-10-22T00:50:00.859Z,13.8
2022-10-22T00:51:01.405Z,13.8
2022-10-22T00:52:00.991Z,13.8
2022-10-22T00:53:01.585Z,13.8
2022-10-22T00:54:01.158Z,13.7
2022-10-22T00:55:00.732Z,13.7
2022-10-22T00:56:01.308Z,13.6
2022-10-22T00:57:00.898Z,13.6
2022-10-22T00:58:01.484Z,13.6
2022-10-22T00:59:01.106Z,13.7
2022-10-22T01:00:00.642Z,13.6
2022-10-22T01:01:01.358Z,13.5
2022-10-22T01:02:00.892Z,13.5
2022-10-22T01:03:01.477Z,13.5
2022-10-22T01:04:01.049Z,13.5
2022-10-22T01:05:00.625Z,13.5
2022-10-22T01:06:01.201Z,13.5
2022-10-22T01:07:00.776Z,13.4
2022-10-22T01:08:01.399Z,13.5
2022-10-22T01:09:01.089Z,13.5
2022-10-22T01:10:01.577Z,13.5
2022-10-22T01:11:01.159Z,13.5
2022-10-22T01:12:00.733Z,13.5
2022-10-22T01:13:01.322Z,13.5
2022-10-22T01:14:00.899Z,13.5
2022-10-22T01:15:01.474Z,13.5
2022-10-22T01:16:01.049Z,13.5
2022-10-22T01:17:00.625Z,13.4
2022-10-22T01:18:01.233Z,13.4
2022-10-22T01:19:00.811Z,13.5
2022-10-22T01:20:01.387Z,13.6
2022-10-22T01:21:00.976Z,13.6
2022-10-22T01:22:01.548Z,13.5
2022-10-22T01:23:01.122Z,13.5
2022-10-22T01:24:00.713Z,13.6
2022-10-22T01:25:01.305Z,13.6
2022-10-22T01:26:00.901Z,13.5
2022-10-22T01:27:01.457Z,13.4
2022-10-22T01:28:01.031Z,13.4
2022-10-22T01:29:00.640Z,13.5
2022-10-22T01:30:01.203Z,13.4
2022-10-22T01:31:00.810Z,13.6
2022-10-22T01:32:01.348Z,13.6
2022-10-22T01:33:00.929Z,13.5
2022-10-22T01:34:01.502Z,13.5
2022-10-22T01:35:01.076Z,13.5
2022-10-22T01:36:00.674Z,13.6
2022-10-22T01:37:01.231Z,13.5
2022-10-22T01:38:00.809Z,13.6
2022-10-22T01:39:01.383Z,13.6
2022-10-22T01:40:00.957Z,13.6
2022-10-22T01:41:01.573Z,13.7
2022-10-22T01:42:01.146Z,13.6
2022-10-22T01:43:00.728Z,13.7
2022-10-22T01:44:01.300Z,13.6
2022-10-22T01:45:00.873Z,13.7
2022-10-22T01:46:01.466Z,13.7
2022-10-22T01:47:01.040Z,13.7
2022-10-22T01:48:00.612Z,13.7
2022-10-22T01:49:01.186Z,13.7
2022-10-22T01:50:00.757Z,13.7
2022-10-22T01:51:01.348Z,13.6
2022-10-22T01:52:00.920Z,13.6
2022-10-22T01:53:01.493Z,13.6
2022-10-22T01:54:01.069Z,13.6
2022-10-22T01:55:00.642Z,13.6
2022-10-22T01:56:01.232Z,13.7
2022-10-22T01:57:00.828Z,13.6
2022-10-22T01:58:01.402Z,13.6
2022-10-22T01:59:00.976Z,13.6
2022-10-22T02:00:01.549Z,13.6
2022-10-22T02:01:01.196Z,13.6
2022-10-22T02:02:00.831Z,13.6
2022-10-22T02:03:01.370Z,13.6
2022-10-22T02:04:00.962Z,13.6
2022-10-22T02:05:01.518Z,13.7
2022-10-22T02:06:01.108Z,13.6
2022-10-22T02:07:00.681Z,13.6
2022-10-22T02:08:01.256Z,13.7
2022-10-22T02:09:00.891Z,13.6
2022-10-22T02:10:01.416Z,13.6
2022-10-22T02:11:00.990Z,13.6
2022-10-22T02:12:01.630Z,13.6
2022-10-22T02:13:01.257Z,13.6
2022-10-22T02:14:00.819Z,13.6
2022-10-22T02:15:01.409Z,13.6
2022-10-22T02:16:00.991Z,13.6
2022-10-22T02:17:01.569Z,13.6
2022-10-22T02:18:01.142Z,13.6
2022-10-22T02:19:00.734Z,13.6
2022-10-22T02:20:01.291Z,13.6
2022-10-22T02:21:00.878Z,13.6
2022-10-22T02:22:01.439Z,13.6
2022-10-22T02:23:01.010Z,13.5
2022-10-22T02:24:01.600Z,13.6
2022-10-22T02:25:01.175Z,13.5
2022-10-22T02:26:00.748Z,13.5
2022-10-22T02:27:01.342Z,13.5
2022-10-22T02:28:00.918Z,13.5
2022-10-22T02:29:01.536Z,13.6
2022-10-22T02:30:01.175Z,13.5
2022-10-22T02:31:00.684Z,13.6
2022-10-22T02:32:01.273Z,13.6
2022-10-22T02:33:00.848Z,13.5
2022-10-22T02:34:01.442Z,13.6
2022-10-22T02:35:01.014Z,13.6
2022-10-22T02:36:00.587Z,13.5
2022-10-22T02:37:01.179Z,13.5
2022-10-22T02:38:00.794Z,13.5
2022-10-22T02:39:01.326Z,13.6
2022-10-22T02:40:00.898Z,13.6
2022-10-22T02:41:01.473Z,13.6
2022-10-22T02:42:01.065Z,13.6
2022-10-22T02:43:00.621Z,13.6
2022-10-22T02:44:01.194Z,13.5
2022-10-22T02:45:00.789Z,13.5
2022-10-22T02:46:01.343Z,13.6
2022-10-22T02:47:00.932Z,13.5
2022-10-22T02:48:01.509Z,13.5
2022-10-22T02:49:01.083Z,13.4
2022-10-22T02:50:00.655Z,13.4
2022-10-22T02:51:01.229Z,13.4
2022-10-22T02:52:00.800Z,13.3
2022-10-22T02:53:01.391Z,13.3
2022-10-22T02:54:00.966Z,13.3
2022-10-22T02:55:01.540Z,13.3
2022-10-22T02:56:01.138Z,13.3
2022-10-22T02:57:00.716Z,13.3
2022-10-22T02:58:01.302Z,13.4
2022-10-22T02:59:00.890Z,13.4
2022-10-22T03:00:01.457Z,13.4
2022-10-22T03:01:01.110Z,13.5
2022-10-22T03:02:00.652Z,13.6
2022-10-22T03:03:01.207Z,13.5
2022-10-22T03:04:00.779Z,13.4
2022-10-22T03:05:01.358Z,13.5
2022-10-22T03:06:00.937Z,13.5
2022-10-22T03:07:01.510Z,13.6
2022-10-22T03:08:01.104Z,13.6
2022-10-22T03:09:00.726Z,13.6
2022-10-22T03:10:01.248Z,13.6
2022-10-22T03:11:00.821Z,13.5
2022-10-22T03:12:01.397Z,13.5
2022-10-22T03:13:00.986Z,13.5
2022-10-22T03:14:01.555Z,13.5
2022-10-22T03:15:01.131Z,13.5
2022-10-22T03:16:00.725Z,13.5
2022-10-22T03:17:01.302Z,13.5
2022-10-22T03:18:00.876Z,13.4
2022-10-22T03:19:01.447Z,13.4
2022-10-22T03:20:01.017Z,13.5
2022-10-22T03:21:00.604Z,13.5
2022-10-22T03:22:01.167Z,13.4
2022-10-22T03:23:00.740Z,13.5
2022-10-22T03:24:01.337Z,13.5
2022-10-22T03:25:00.908Z,13.6
2022-10-22T03:26:01.484Z,13.5
2022-10-22T03:27:01.058Z,13.5
2022-10-22T03:28:00.628Z,13.5
2022-10-22T03:29:01.222Z,13.6
2022-10-22T03:30:00.797Z,13.6
2022-10-22T03:31:01.372Z,13.6
2022-10-22T03:32:00.945Z,13.7
2022-10-22T03:33:01.541Z,13.6
2022-10-22T03:34:01.131Z,13.7
2022-10-22T03:36:01.287Z,13.7
2022-10-22T03:37:00.863Z,13.7
2022-10-22T03:38:01.429Z,13.8
2022-10-22T03:39:01.061Z,13.8
2022-10-22T03:40:01.600Z,13.7
2022-10-22T03:41:01.174Z,13.8
2022-10-22T03:42:00.747Z,13.8
2022-10-22T03:43:01.319Z,13.7
2022-10-22T03:44:00.913Z,13.7
2022-10-22T03:45:01.469Z,13.7
2022-10-22T03:46:01.046Z,13.8
2022-10-22T03:47:01.821Z,13.7
2022-10-22T03:48:01.164Z,13.7
2022-10-22T03:49:00.801Z,13.7
2022-10-22T03:50:01.359Z,13.6
2022-10-22T03:51:00.932Z,13.6
2022-10-22T03:52:01.505Z,13.6
2022-10-22T03:53:01.080Z,13.7
2022-10-22T03:54:00.687Z,13.7
2022-10-22T03:55:01.227Z,13.7
2022-10-22T03:56:00.799Z,13.6
2022-10-22T03:57:01.374Z,13.6
2022-10-22T03:58:00.946Z,13.6
2022-10-22T03:59:01.546Z,13.6
2022-10-22T04:00:01.121Z,13.6
2022-10-22T04:01:00.719Z,13.6
2022-10-22T04:02:01.284Z,13.6
2022-10-22T04:03:00.912Z,13.6
2022-10-22T04:04:01.451Z,13.6
2022-10-22T04:05:01.139Z,13.7
2022-10-22T04:06:00.607Z,13.7
2022-10-22T04:07:01.183Z,13.8
2022-10-22T04:08:00.756Z,13.8
2022-10-22T04:09:01.444Z,13.8
2022-10-22T04:10:01.007Z,13.7
2022-10-22T04:11:01.578Z,13.7
2022-10-22T04:12:01.154Z,13.8
2022-10-22T04:13:00.729Z,13.8
2022-10-22T04:14:01.302Z,13.8
2022-10-22T04:15:00.896Z,13.8
2022-10-22T04:16:01.467Z,13.8
2022-10-22T04:17:01.038Z,13.8
2022-10-22T04:18:00.609Z,13.8
2022-10-22T04:19:01.180Z,13.8
2022-10-22T04:20:00.771Z,13.9
2022-10-22T04:21:01.363Z,13.9
2022-10-22T04:22:00.943Z,13.9
2022-10-22T04:23:01.514Z,13.9
2022-10-22T04:24:01.086Z,13.9
2022-10-22T04:25:00.679Z,13.9
2022-10-22T04:26:01.259Z,13.9
2022-10-22T04:27:00.833Z,14
2022-10-22T04:28:01.404Z,14
2022-10-22T04:29:00.975Z,14
2022-10-22T04:30:01.561Z,13.9
2022-10-22T04:31:01.151Z,14
2022-10-22T04:32:00.724Z,13.9
2022-10-22T04:33:01.299Z,13.9
2022-10-22T04:34:00.876Z,13.9
2022-10-22T04:35:01.446Z,13.8
2022-10-22T04:36:01.038Z,13.8
2022-10-22T04:37:00.633Z,13.8
2022-10-22T04:38:01.209Z,13.8
2022-10-22T04:39:00.781Z,13.7
2022-10-22T04:40:01.353Z,13.7
2022-10-22T04:41:00.947Z,13.7
2022-10-22T04:42:01.518Z,13.7
2022-10-22T04:43:01.117Z,13.7
2022-10-22T04:44:00.693Z,13.7
2022-10-22T04:45:01.286Z,13.7
2022-10-22T04:46:00.861Z,13.6
2022-10-22T04:47:01.433Z,13.6
2022-10-22T04:48:01.006Z,13.6
2022-10-22T04:49:01.582Z,13.5
2022-10-22T04:50:01.176Z,13.5
2022-10-22T04:51:00.754Z,13.6
2022-10-22T04:52:01.323Z,13.5
2022-10-22T04:53:00.939Z,13.5
2022-10-22T04:54:01.470Z,13.5
2022-10-22T04:55:01.047Z,13.5
2022-10-22T04:56:00.626Z,13.5
2022-10-22T04:57:01.198Z,13.6
2022-10-22T04:58:00.789Z,13.6
2022-10-22T04:59:01.357Z,13.6
2022-10-22T05:00:00.929Z,13.7
2022-10-22T05:01:01.590Z,13.7
2022-10-22T05:02:01.160Z,13.7
2022-10-22T05:03:00.750Z,13.7
2022-10-22T05:04:01.351Z,13.8
2022-10-22T05:05:00.941Z,13.8
2022-10-22T05:06:01.543Z,13.8
2022-10-22T05:07:01.157Z,13.8
2022-10-22T05:08:00.732Z,13.9
2022-10-22T05:09:01.358Z,13.9
2022-10-22T05:10:00.982Z,13.9
2022-10-22T05:11:01.545Z,13.9
2022-10-22T05:12:01.119Z,14
2022-10-22T05:13:00.688Z,14
2022-10-22T05:14:01.265Z,14.1
2022-10-22T05:15:00.853Z,14.1
2022-10-22T05:16:01.423Z,14.1
2022-10-22T05:17:00.995Z,14.2
2022-10-22T05:18:01.568Z,14.3
2022-10-22T05:19:01.139Z,14.3
2022-10-22T05:20:00.731Z,14.3
2022-10-22T05:21:01.288Z,14.3
2022-10-22T05:22:00.870Z,14.3
2022-10-22T05:23:01.434Z,14.2
2022-10-22T05:24:01.008Z,14.2
2022-10-22T05:25:01.624Z,14.2
2022-10-22T05:26:01.197Z,14.2
2022-10-22T05:27:00.773Z,14.2
2022-10-22T05:28:01.354Z,14.1
2022-10-22T05:29:00.932Z,14.1
2022-10-22T05:30:01.529Z,14.1
2022-10-22T05:31:01.104Z,14.1
2022-10-22T05:32:00.678Z,14.1
2022-10-22T05:33:01.254Z,14.1
2022-10-22T05:34:00.827Z,14.1
2022-10-22T05:35:01.420Z,14.1
2022-10-22T05:36:00.995Z,14.2
2022-10-22T05:37:01.585Z,14.2
2022-10-22T05:38:01.161Z,14.2
2022-10-22T05:39:00.739Z,14.1
2022-10-22T05:40:06.841Z,14.2
2022-10-22T05:41:00.897Z,14.1
2022-10-22T05:42:01.490Z,14.1
2022-10-22T05:43:01.063Z,14.1
2022-10-22T05:44:00.632Z,14.1
2022-10-22T05:45:01.205Z,14.1
2022-10-22T05:46:00.780Z,14.1
2022-10-22T05:47:01.372Z,14
2022-10-22T05:48:00.943Z,14
2022-10-22T05:49:01.520Z,14
2022-10-22T05:50:01.097Z,14
2022-10-22T05:51:00.673Z,14
2022-10-22T05:52:01.265Z,14
2022-10-22T05:53:00.842Z,14
2022-10-22T05:54:01.417Z,14
2022-10-22T05:55:00.993Z,13.9
2022-10-22T05:56:01.567Z,13.9
2022-10-22T05:57:01.181Z,13.9
2022-10-22T05:58:00.754Z,13.9
2022-10-22T06:00:00.895Z,13.8
2022-10-22T06:01:01.474Z,13.9
2022-10-22T06:02:01.110Z,13.9
2022-10-22T06:03:00.624Z,13.9
2022-10-22T06:04:01.229Z,13.8
2022-10-22T06:05:00.804Z,13.8
2022-10-22T06:06:01.377Z,13.8
2022-10-22T06:07:00.967Z,13.8
2022-10-22T06:08:01.528Z,13.8
2022-10-22T06:09:01.119Z,13.8
2022-10-22T06:10:00.730Z,13.8
2022-10-22T06:11:01.300Z,13.8
2022-10-22T06:12:00.890Z,13.7
2022-10-22T06:13:01.475Z,13.7
2022-10-22T06:14:01.048Z,13.8
2022-10-22T06:15:00.618Z,13.7
2022-10-22T06:16:01.188Z,13.7
2022-10-22T06:17:00.777Z,13.6
2022-10-22T06:18:01.344Z,13.6
2022-10-22T06:19:00.925Z,13.5
2022-10-22T06:20:01.574Z,13.5
2022-10-22T06:21:01.153Z,13.5
2022-10-22T06:22:00.743Z,13.4
2022-10-22T06:23:01.310Z,13.4
2022-10-22T06:24:00.895Z,13.4
2022-10-22T06:25:01.474Z,13.4
2022-10-22T06:26:01.047Z,13.5
2022-10-22T06:27:00.640Z,13.5
2022-10-22T06:28:01.211Z,13.5
2022-10-22T06:29:00.810Z,13.4
2022-10-22T06:30:01.389Z,13.4
2022-10-22T06:31:00.961Z,13.5
2022-10-22T06:32:01.551Z,13.5
2022-10-22T06:33:01.123Z,13.5
2022-10-22T06:34:00.698Z,13.5
2022-10-22T06:35:01.270Z,13.5
2022-10-22T06:36:03.960Z,13.6
2022-10-22T06:37:01.396Z,13.5
2022-10-22T06:38:00.967Z,13.6
2022-10-22T06:39:01.551Z,13.7
2022-10-22T06:40:01.125Z,13.7
2022-10-22T06:41:00.698Z,13.7
2022-10-22T06:42:01.286Z,13.7
2022-10-22T06:43:00.862Z,13.8
2022-10-22T06:44:01.431Z,13.8
2022-10-22T06:46:00.625Z,13.8
2022-10-22T06:47:01.183Z,13.9
2022-10-22T06:48:00.759Z,13.9
2022-10-22T06:49:01.333Z,13.8
2022-10-22T06:50:00.911Z,13.8
2022-10-22T06:51:01.479Z,13.9
2022-10-22T06:52:01.071Z,13.9
2022-10-22T06:53:00.640Z,14
2022-10-22T06:54:01.213Z,13.9
2022-10-22T06:55:00.787Z,13.9
2022-10-22T06:56:01.368Z,14
2022-10-22T06:57:00.960Z,14
2022-10-22T06:58:01.536Z,14.1
2022-10-22T06:59:01.108Z,14.1
2022-10-22T07:00:00.679Z,14.1
2022-10-22T07:01:01.315Z,14.2
2022-10-22T07:02:00.932Z,14.3
2022-10-22T07:03:01.490Z,14.3
2022-10-22T07:04:01.066Z,14.4
2022-10-22T07:05:00.687Z,14.5
2022-10-22T07:06:01.223Z,14.6
2022-10-22T07:07:00.814Z,14.6
2022-10-22T07:08:01.396Z,14.7
2022-10-22T07:09:01.106Z,14.8
2022-10-22T07:10:01.556Z,14.8
2022-10-22T07:11:01.149Z,14.9
2022-10-22T07:12:00.742Z,14.9
2022-10-22T07:13:01.303Z,14.9
2022-10-22T07:14:00.878Z,15
2022-10-22T07:15:01.451Z,15
2022-10-22T07:16:01.032Z,15
2022-10-22T07:17:00.657Z,15
2022-10-22T07:18:01.177Z,14.9
2022-10-22T07:19:00.752Z,14.9
2022-10-22T07:20:01.328Z,14.9
2022-10-22T07:21:00.908Z,14.9
2022-10-22T07:22:01.501Z,14.8
2022-10-22T07:23:01.075Z,14.8
2022-10-22T07:24:00.649Z,14.8
2022-10-22T07:25:03.863Z,14.8
2022-10-22T07:26:00.760Z,14.8
2022-10-22T07:27:01.360Z,14.8
2022-10-22T07:28:00.935Z,14.8
2022-10-22T07:29:01.509Z,14.8
2022-10-22T07:30:01.088Z,14.8
2022-10-22T07:31:00.658Z,14.8
2022-10-22T07:32:01.251Z,14.7
2022-10-22T07:33:00.873Z,14.7
2022-10-22T07:34:01.432Z,14.8
2022-10-22T07:35:01.011Z,14.8
2022-10-22T07:36:01.585Z,14.8
2022-10-22T07:37:01.180Z,14.8
2022-10-22T07:38:00.752Z,14.8
2022-10-22T07:39:01.325Z,14.7
2022-10-22T07:40:02.836Z,14.8
2022-10-22T07:41:01.455Z,14.8
2022-10-22T07:42:01.031Z,14.9
2022-10-22T07:43:00.645Z,15
2022-10-22T07:44:01.174Z,15
2022-10-22T07:45:00.747Z,15.1
2022-10-22T07:46:01.318Z,15.1
2022-10-22T07:47:00.891Z,15.2
2022-10-22T07:48:01.481Z,15.2
2022-10-22T07:49:01.096Z,15.2
2022-10-22T07:50:00.635Z,15.3
2022-10-22T07:51:01.207Z,15.3
2022-10-22T07:52:00.778Z,15.4
2022-10-22T07:53:01.352Z,15.5
2022-10-22T07:54:00.948Z,15.5
2022-10-22T07:55:01.508Z,15.5
2022-10-22T07:56:01.085Z,15.6
2022-10-22T07:57:00.663Z,15.7
2022-10-22T07:58:01.237Z,15.8
2022-10-22T08:00:01.404Z,15.8
2022-10-22T08:01:01.116Z,15.8
2022-10-22T08:02:01.563Z,15.8
2022-10-22T08:03:01.169Z,16
2022-10-22T08:04:00.760Z,16
2022-10-22T08:05:01.396Z,16.2
2022-10-22T08:06:00.972Z,16.2
2022-10-22T08:07:01.546Z,16.2
2022-10-22T08:08:01.122Z,16.3
2022-10-22T08:09:00.748Z,16.3
2022-10-22T08:10:01.277Z,16.3
2022-10-22T08:11:00.848Z,16.3
2022-10-22T08:12:01.424Z,16.3
2022-10-22T08:13:00.994Z,16.1
2022-10-22T08:14:01.586Z,16.2
2022-10-22T08:15:01.175Z,16.1
2022-10-22T08:16:00.840Z,16.1
2022-10-22T08:17:01.329Z,16.1
2022-10-22T08:18:00.909Z,16.1
2022-10-22T08:19:01.487Z,16.1
2022-10-22T08:20:01.083Z,16
2022-10-22T08:21:00.668Z,16
2022-10-22T08:22:01.228Z,16.1
2022-10-22T08:23:00.805Z,16
2022-10-22T08:24:01.408Z,16.2
2022-10-22T08:25:01.013Z,16.3
2022-10-22T08:26:01.604Z,16.3
2022-10-22T08:27:01.178Z,16.4
2022-10-22T08:28:00.754Z,16.6
2022-10-22T08:29:01.330Z,16.6
2022-10-22T08:30:00.921Z,16.5
2022-10-22T08:31:01.512Z,16.8
2022-10-22T08:32:01.088Z,16.8
2022-10-22T08:33:00.666Z,16.9
2022-10-22T08:34:01.241Z,17.1
2022-10-22T08:35:00.816Z,17.1
2022-10-22T08:36:01.412Z,17.1
2022-10-22T08:37:01.011Z,17.1
2022-10-22T08:38:01.576Z,17.2
2022-10-22T08:39:01.150Z,17.1
2022-10-22T08:40:00.725Z,17
2022-10-22T08:41:01.322Z,17
2022-10-22T08:42:00.913Z,17.1
2022-10-22T08:43:01.473Z,17.1
2022-10-22T08:44:01.049Z,17.1
2022-10-22T08:45:00.629Z,17
2022-10-22T08:46:01.203Z,17
2022-10-22T08:47:00.824Z,17
2022-10-22T08:48:01.355Z,16.9
2022-10-22T08:49:01.008Z,16.8
2022-10-22T08:50:01.516Z,16.8
2022-10-22T08:51:01.092Z,16.7
2022-10-22T08:52:00.687Z,16.6
2022-10-22T08:53:01.282Z,16.6
2022-10-22T08:54:00.860Z,16.6
2022-10-22T08:55:01.442Z,16.8
2022-10-22T08:56:01.029Z,16.8
2022-10-22T08:57:01.597Z,16.6
2022-10-22T08:58:01.174Z,16.5
2022-10-22T08:59:00.752Z,16.5
2022-10-22T09:00:01.335Z,16.5
2022-10-22T09:01:00.929Z,16.5
2022-10-22T09:02:01.490Z,16.5
2022-10-22T09:03:01.082Z,16.5
2022-10-22T09:04:00.639Z,16.6
2022-10-22T09:05:01.214Z,16.6
2022-10-22T09:06:00.873Z,16.5
2022-10-22T09:07:01.375Z,16.5
2022-10-22T09:08:00.949Z,16.5
2022-10-22T09:09:01.592Z,16.4
2022-10-22T09:10:01.180Z,16.4
2022-10-22T09:11:00.770Z,16.4
2022-10-22T09:12:01.342Z,16.5
2022-10-22T09:13:00.923Z,16.4
2022-10-22T09:14:01.607Z,16.5
2022-10-22T09:15:01.141Z,16.5
2022-10-22T09:16:00.715Z,16.5
2022-10-22T09:17:01.312Z,16.7
2022-10-22T09:18:00.889Z,16.7
2022-10-22T09:19:01.488Z,16.6
2022-10-22T09:20:01.074Z,16.8
2022-10-22T09:21:00.650Z,16.8
2022-10-22T09:22:01.239Z,16.9
2022-10-22T09:23:00.813Z,17
2022-10-22T09:24:01.413Z,17
2022-10-22T09:25:01.010Z,16.9
2022-10-22T09:26:01.579Z,16.8
2022-10-22T09:27:01.176Z,16.8
2022-10-22T09:28:00.748Z,16.8
2022-10-22T09:29:01.321Z,16.9
2022-10-22T09:30:00.910Z,16.9
2022-10-22T09:31:01.469Z,16.8
2022-10-22T09:32:01.063Z,16.8
2022-10-22T09:33:00.644Z,16.8
2022-10-22T09:34:01.213Z,16.7
2022-10-22T09:35:00.788Z,16.8
2022-10-22T09:36:01.360Z,16.8
2022-10-22T09:37:00.972Z,16.8
2022-10-22T09:38:01.508Z,16.9
2022-10-22T09:39:01.081Z,17.1
2022-10-22T09:40:00.671Z,17.1
2022-10-22T09:41:01.276Z,17
2022-10-22T09:42:00.874Z,17
2022-10-22T09:43:01.437Z,17.1
2022-10-22T09:44:01.011Z,17.1
2022-10-22T09:45:01.586Z,17.2
2022-10-22T09:46:01.165Z,17.2
2022-10-22T09:47:00.759Z,17.2
2022-10-22T09:48:02.287Z,17.2
2022-10-22T09:49:00.999Z,17.3
2022-10-22T09:50:01.565Z,17.4
2022-10-22T09:51:01.136Z,17.3
2022-10-22T09:52:00.721Z,17.4
2022-10-22T09:53:01.285Z,17.4
2022-10-22T09:54:00.864Z,17.2
2022-10-22T09:55:01.453Z,17.4
2022-10-22T09:56:01.061Z,17.5
2022-10-22T09:57:01.624Z,17.7
2022-10-22T09:58:01.198Z,17.6
2022-10-22T09:59:00.772Z,17.4
2022-10-22T10:00:01.363Z,17.5
2022-10-22T10:01:00.950Z,17.2
2022-10-22T10:02:08.361Z,17
2022-10-22T10:03:01.126Z,17
2022-10-22T10:04:00.721Z,17.1
2022-10-22T10:05:01.315Z,17.1
2022-10-22T10:06:02.908Z,17.2
2022-10-22T10:07:01.499Z,17.2
2022-10-22T10:08:01.091Z,17.2
2022-10-22T10:09:00.721Z,17.2
2022-10-22T10:10:01.266Z,17.1
2022-10-22T10:11:00.847Z,17
2022-10-22T10:12:01.420Z,17
2022-10-22T10:13:01.040Z,17
2022-10-22T10:14:01.585Z,16.8
2022-10-22T10:15:01.197Z,16.8
2022-10-22T10:16:00.771Z,16.8
2022-10-22T10:17:01.345Z,16.9
2022-10-22T10:18:00.916Z,16.9
2022-10-22T10:19:01.487Z,17.1
2022-10-22T10:20:02.876Z,17
2022-10-22T10:21:01.714Z,17
2022-10-22T10:22:01.390Z,17.1
2022-10-22T10:23:00.885Z,17.3
2022-10-22T10:24:01.459Z,17.3
2022-10-22T10:25:01.059Z,17.2
2022-10-22T10:26:00.648Z,17.1
2022-10-22T10:27:01.215Z,17
2022-10-22T10:28:00.788Z,16.9
2022-10-22T10:29:01.385Z,16.8
2022-10-22T10:30:01.014Z,17
2022-10-22T10:31:01.601Z,17.1
2022-10-22T10:32:01.221Z,17.2
2022-10-22T10:33:00.783Z,17.2
2022-10-22T10:34:01.356Z,17.3
2022-10-22T10:35:00.929Z,17.1
2022-10-22T10:36:01.521Z,17.1
2022-10-22T10:37:01.097Z,16.9
2022-10-22T10:38:00.679Z,17
2022-10-22T10:39:01.259Z,16.9
2022-10-22T10:40:00.830Z,17
2022-10-22T10:41:01.428Z,17.1
2022-10-22T10:42:01.027Z,17.2
2022-10-22T10:43:01.596Z,17.3
2022-10-22T10:44:01.171Z,17.4
2022-10-22T10:45:00.768Z,17.3
2022-10-22T10:46:01.349Z,17.3
2022-10-22T10:47:00.926Z,17.1
2022-10-22T10:48:01.504Z,17
2022-10-22T10:49:01.089Z,17
2022-10-22T10:50:00.828Z,16.9
2022-10-22T10:51:01.272Z,17.1
2022-10-22T10:52:00.846Z,17.2
2022-10-22T10:53:01.425Z,17.2
2022-10-22T10:54:01.025Z,17.3
2022-10-22T10:55:01.606Z,17.3
2022-10-22T10:56:01.227Z,17.4
2022-10-22T10:57:00.801Z,17.4
2022-10-22T10:58:01.372Z,17.5
2022-10-22T10:59:00.946Z,17.5
2022-10-22T11:00:01.555Z,17.6
2022-10-22T11:01:01.180Z,17.6
2022-10-22T11:02:00.807Z,17.7
2022-10-22T11:03:01.337Z,17.8
2022-10-22T11:04:00.928Z,17.8
2022-10-22T11:05:01.516Z,17.9
2022-10-22T11:06:01.118Z,17.8
2022-10-22T11:07:05.911Z,18
2022-10-22T11:08:01.254Z,17.9
2022-10-22T11:09:00.876Z,17.6
2022-10-22T11:10:01.415Z,17.7
2022-10-22T11:11:01.024Z,17.8
2022-10-22T11:12:01.591Z,17.9
2022-10-22T11:13:01.164Z,17.8
2022-10-22T11:14:00.740Z,17.7
2022-10-22T11:15:01.314Z,17.7
2022-10-22T11:16:00.890Z,17.8
2022-10-22T11:17:01.509Z,17.8
2022-10-22T11:18:01.088Z,18.1
2022-10-22T11:19:00.662Z,18.2
2022-10-22T11:20:01.329Z,18.1
2022-10-22T11:21:00.900Z,18.1
2022-10-22T11:22:01.492Z,18
2022-10-22T11:23:18.575Z,18.2
2022-10-22T11:24:01.606Z,18.3
2022-10-22T11:25:01.201Z,18.4
2022-10-22T11:26:00.771Z,18.3
2022-10-22T11:27:01.371Z,18.4
2022-10-22T11:28:05.625Z,18.3
2022-10-22T11:29:01.477Z,18.3
2022-10-22T11:30:01.085Z,18.3
2022-10-22T11:31:00.634Z,18.2
2022-10-22T11:32:01.226Z,18.1
2022-10-22T11:33:00.827Z,18.1
2022-10-22T11:34:05.109Z,18
2022-10-22T11:35:00.933Z,17.8
2022-10-22T11:36:01.506Z,17.6
2022-10-22T11:37:01.121Z,17.6
2022-10-22T11:38:00.668Z,17.7
2022-10-22T11:39:01.240Z,17.9
2022-10-22T11:40:00.830Z,17.8
2022-10-22T11:41:01.399Z,17.7
2022-10-22T11:42:00.971Z,17.7
2022-10-22T11:43:01.548Z,17.8
2022-10-22T11:44:01.139Z,17.9
2022-10-22T11:45:00.742Z,18.1
2022-10-22T11:46:01.303Z,18
2022-10-22T11:47:00.878Z,17.8
2022-10-22T11:48:01.471Z,17.7
2022-10-22T11:49:01.072Z,17.6
2022-10-22T11:50:00.631Z,17.6
2022-10-22T11:51:01.203Z,17.4
2022-10-22T11:52:02.976Z,17.4
2022-10-22T11:53:01.435Z,17.4
2022-10-22T11:54:01.020Z,17.3
2022-10-22T11:55:01.592Z,17.4
2022-10-22T11:56:01.174Z,17.4
2022-10-22T11:57:00.748Z,17.6
2022-10-22T11:58:01.340Z,17.7
2022-10-22T11:59:00.916Z,17.9
2022-10-22T12:00:01.491Z,18
2022-10-22T12:01:01.065Z,17.8
2022-10-22T12:02:00.638Z,17.9
2022-10-22T12:03:01.226Z,17.8
2022-10-22T12:04:00.808Z,17.9
2022-10-22T12:05:01.400Z,18.1
2022-10-22T12:06:00.974Z,18.2
2022-10-22T12:07:01.566Z,18.2
2022-10-22T12:08:01.187Z,18.2
2022-10-22T12:09:00.792Z,18.1
2022-10-22T12:10:01.333Z,18
2022-10-22T12:11:00.916Z,17.8
2022-10-22T12:12:01.505Z,18
2022-10-22T12:13:01.080Z,18.1
2022-10-22T12:14:00.653Z,18.2
2022-10-22T12:15:01.236Z,17.9
2022-10-22T12:16:00.814Z,17.8
2022-10-22T12:17:01.404Z,17.8
2022-10-22T12:18:01.035Z,17.8
2022-10-22T12:19:01.553Z,17.8
2022-10-22T12:20:01.989Z,17.9
2022-10-22T12:21:01.266Z,18.1
2022-10-22T12:22:00.857Z,18.1
2022-10-22T12:23:01.430Z,18.1
2022-10-22T12:24:01.541Z,18.2
2022-10-22T12:25:01.115Z,18.2
2022-10-22T12:26:00.690Z,18.1
2022-10-22T12:27:01.322Z,18
2022-10-22T12:28:00.933Z,18
2022-10-22T12:29:01.498Z,17.9
2022-10-22T12:30:01.070Z,17.9
2022-10-22T12:31:00.643Z,17.8
2022-10-22T12:32:01.227Z,17.6
2022-10-22T12:33:00.843Z,17.6
2022-10-22T12:34:01.407Z,17.6
2022-10-22T12:35:00.983Z,17.6
2022-10-22T12:36:01.557Z,17.5
2022-10-22T12:37:01.154Z,17.4
2022-10-22T12:38:00.749Z,17.4
2022-10-22T12:39:01.315Z,17.3
2022-10-22T12:40:00.890Z,17.3
2022-10-22T12:41:01.469Z,17.3
2022-10-22T12:42:01.047Z,17.4
2022-10-22T12:43:01.736Z,17.5
2022-10-22T12:44:01.360Z,17.4
2022-10-22T12:45:00.863Z,17.5
2022-10-22T12:46:01.438Z,17.5
2022-10-22T12:47:01.009Z,17.4
2022-10-22T12:48:01.598Z,17.4
2022-10-22T12:49:01.171Z,17.4
2022-10-22T12:50:00.744Z,17.3
2022-10-22T12:51:01.335Z,17.3
2022-10-22T12:52:00.911Z,17.3
2022-10-22T12:53:01.531Z,17.3
2022-10-22T12:54:01.106Z,17.3
2022-10-22T12:55:00.676Z,17.3
2022-10-22T12:56:01.262Z,17.3
2022-10-22T12:57:00.837Z,17.3
2022-10-22T12:58:01.433Z,17.3
2022-10-22T12:59:01.006Z,17.5
2022-10-22T13:00:01.782Z,17.6
2022-10-22T13:01:01.631Z,17.7
2022-10-22T13:02:00.824Z,17.8
2022-10-22T13:03:01.412Z,17.7
2022-10-22T13:04:00.985Z,17.8
2022-10-22T13:05:01.559Z,17.8
2022-10-22T13:06:01.152Z,17.6
2022-10-22T13:07:00.725Z,17.5
2022-10-22T13:08:01.305Z,17.6
2022-10-22T13:09:01.002Z,17.6
2022-10-22T13:10:01.485Z,17.5
2022-10-22T13:11:01.084Z,17.5
2022-10-22T13:12:00.651Z,17.5
2022-10-22T13:13:01.226Z,17.6
2022-10-22T13:14:00.816Z,17.6
2022-10-22T13:15:01.384Z,17.5
2022-10-22T13:16:00.974Z,17.5
2022-10-22T13:17:01.548Z,17.5
2022-10-22T13:18:01.124Z,17.8
2022-10-22T13:19:00.709Z,17.9
2022-10-22T13:20:01.301Z,18
2022-10-22T13:21:00.896Z,17.8
2022-10-22T13:22:01.464Z,17.7
2022-10-22T13:23:01.041Z,17.6
2022-10-22T13:24:01.614Z,17.6
2022-10-22T13:25:01.215Z,17.8
2022-10-22T13:26:00.807Z,17.7
2022-10-22T13:27:01.378Z,17.7